createdAt,value
2023-02-20T00:01:08.761Z,3.70
2023-02-20T00:03:37.018Z,3.30
2023-02-20T00:06:05.660Z,4.00
2023-02-20T00:08:33.856Z,3.70
2023-02-20T00:11:02.115Z,3.30
2023-02-20T00:13:30.403Z,3.60
2023-02-20T00:15:58.569Z,3.30
2023-02-20T00:18:26.914Z,3.50
2023-02-20T00:20:55.210Z,3.80
2023-02-20T00:23:23.430Z,4.10
2023-02-20T00:25:51.783Z,4.00
2023-02-20T00:28:19.988Z,3.80
2023-02-20T00:30:48.219Z,3.90
2023-02-20T00:33:16.693Z,3.40
2023-02-20T00:35:45.117Z,4.40
2023-02-20T00:38:13.407Z,3.90
2023-02-20T00:40:41.565Z,4.00
2023-02-20T00:43:11.464Z,3.40
2023-02-20T00:45:40.055Z,4.50
2023-02-20T00:48:08.560Z,3.80
2023-02-20T00:50:37.109Z,3.70
2023-02-20T00:53:05.732Z,4.00
2023-02-20T00:55:34.141Z,4.50
2023-02-20T00:58:03.182Z,4.00
2023-02-20T01:00:31.689Z,4.20
2023-02-20T01:03:00.937Z,3.90
2023-02-20T01:05:29.489Z,4.40
2023-02-20T01:07:57.841Z,3.90
2023-02-20T01:10:26.193Z,4.50
2023-02-20T01:12:54.550Z,4.10
2023-02-20T01:15:23.321Z,4.20
2023-02-20T01:17:51.681Z,4.20
2023-02-20T01:20:20.354Z,4.30
2023-02-20T01:22:48.906Z,4.10
2023-02-20T01:25:17.580Z,4.30
2023-02-20T01:27:46.138Z,4.20
2023-02-20T01:30:16.046Z,4.00
2023-02-20T01:32:44.514Z,4.40
2023-02-20T01:35:13.018Z,4.40
2023-02-20T01:37:41.406Z,5.20
2023-02-20T01:40:16.383Z,4.00
2023-02-20T01:42:44.747Z,4.10
2023-02-20T01:45:32.869Z,4.30
2023-02-20T01:48:01.350Z,3.80
2023-02-20T01:50:35.270Z,4.20
2023-02-20T01:53:09.492Z,4.30
2023-02-20T01:55:44.151Z,4.00
2023-02-20T01:58:16.249Z,3.80
2023-02-20T02:00:44.918Z,3.80
2023-02-20T02:03:16.826Z,3.70
2023-02-20T02:05:49.276Z,4.40
2023-02-20T02:08:22.221Z,4.20
2023-02-20T02:10:57.037Z,3.60
2023-02-20T02:13:25.315Z,3.50
2023-02-20T02:16:07.383Z,3.90
2023-02-20T02:18:52.992Z,3.70
2023-02-20T02:21:57.409Z,3.40
2023-02-20T02:24:48.943Z,3.20
2023-02-20T02:27:55.060Z,3.40
2023-02-20T02:30:49.028Z,3.70
2023-02-20T02:33:59.505Z,3.20
2023-02-20T02:36:39.576Z,2.80
2023-02-20T02:39:17.383Z,2.80
2023-02-20T02:41:57.331Z,2.50
2023-02-20T02:44:38.434Z,2.80
2023-02-20T02:47:11.617Z,2.80
2023-02-20T02:49:48.559Z,3.20
2023-02-20T02:52:38.074Z,3.20
2023-02-20T02:55:08.341Z,3.10
2023-02-20T02:57:36.739Z,2.90
2023-02-20T03:00:10.291Z,2.80
2023-02-20T03:02:46.500Z,4.20
2023-02-20T03:05:19.565Z,2.90
2023-02-20T03:07:51.540Z,3.50
2023-02-20T03:10:30.926Z,3.70
2023-02-20T03:13:04.770Z,3.60
2023-02-20T03:15:39.693Z,3.40
2023-02-20T03:18:17.467Z,3.20
2023-02-20T03:20:49.241Z,3.60
2023-02-20T03:23:21.989Z,4.10
2023-02-20T03:25:54.529Z,3.70
2023-02-20T03:28:28.149Z,4.00
2023-02-20T03:31:01.413Z,3.60
2023-02-20T03:33:53.295Z,4.30
2023-02-20T03:36:45.979Z,4.20
2023-02-20T03:39:37.722Z,4.50
2023-02-20T03:42:28.074Z,4.50
2023-02-20T03:45:05.128Z,4.10
2023-02-20T03:47:37.348Z,4.20
2023-02-20T03:50:10.439Z,5.00
2023-02-20T03:52:39.342Z,4.50
2023-02-20T03:55:09.299Z,4.10
2023-02-20T03:57:42.598Z,4.40
2023-02-20T04:00:16.847Z,4.70
2023-02-20T04:02:54.153Z,4.50
2023-02-20T04:05:27.219Z,4.10
2023-02-20T04:08:00.103Z,3.60
2023-02-20T04:10:34.218Z,5.10
2023-02-20T04:13:04.173Z,3.80
2023-02-20T04:15:33.577Z,4.40
2023-02-20T04:18:07.673Z,3.60
2023-02-20T04:20:36.448Z,4.40
2023-02-20T04:23:18.972Z,4.50
2023-02-20T04:25:51.596Z,4.90
2023-02-20T04:28:21.925Z,4.20
2023-02-20T04:31:10.248Z,3.80
2023-02-20T04:33:39.299Z,4.10
2023-02-20T04:36:13.765Z,3.40
2023-02-20T04:38:42.492Z,3.60
2023-02-20T04:41:14.015Z,4.00
2023-02-20T04:43:42.529Z,4.60
2023-02-20T04:46:11.881Z,3.40
2023-02-20T04:48:41.281Z,3.60
2023-02-20T04:51:10.512Z,3.70
2023-02-20T04:53:38.833Z,4.30
2023-02-20T04:56:07.743Z,3.80
2023-02-20T04:58:38.007Z,3.10
2023-02-20T05:01:12.906Z,3.40
2023-02-20T05:03:41.076Z,3.60
2023-02-20T05:06:09.296Z,3.10
2023-02-20T05:08:42.605Z,3.00
2023-02-20T05:11:11.060Z,2.70
2023-02-20T05:13:42.126Z,3.90
2023-02-20T05:16:13.227Z,3.30
2023-02-20T05:18:42.137Z,3.60
2023-02-20T05:21:32.642Z,3.90
2023-02-20T05:24:01.205Z,4.10
2023-02-20T05:26:29.416Z,4.10
2023-02-20T05:28:58.080Z,3.50
2023-02-20T05:31:26.441Z,3.50
2023-02-20T05:33:55.368Z,3.60
2023-02-20T05:36:25.654Z,3.50
2023-02-20T05:38:54.548Z,3.60
2023-02-20T05:41:22.962Z,3.30
2023-02-20T05:43:54.659Z,3.10
2023-02-20T05:46:24.442Z,3.70
2023-02-20T05:48:56.149Z,3.60
2023-02-20T05:51:37.028Z,4.20
2023-02-20T05:54:08.910Z,3.50
2023-02-20T05:56:42.254Z,3.70
2023-02-20T05:59:11.519Z,4.00
2023-02-20T06:01:40.328Z,3.80
2023-02-20T06:04:08.814Z,3.90
2023-02-20T06:06:38.948Z,4.20
2023-02-20T06:09:10.160Z,4.90
2023-02-20T06:11:39.060Z,4.00
2023-02-20T06:14:08.255Z,4.00
2023-02-20T06:16:36.704Z,4.10
2023-02-20T06:19:06.513Z,3.60
2023-02-20T06:21:37.063Z,3.40
2023-02-20T06:24:06.443Z,4.10
2023-02-20T06:26:40.395Z,3.50
2023-02-20T06:29:09.181Z,3.70
2023-02-20T06:31:38.140Z,3.70
2023-02-20T06:34:07.530Z,3.60
2023-02-20T06:36:38.971Z,3.50
2023-02-20T06:39:09.460Z,3.30
2023-02-20T06:41:38.564Z,4.00
2023-02-20T06:44:06.961Z,4.50
2023-02-20T06:46:35.544Z,3.50
2023-02-20T06:49:04.463Z,4.20
2023-02-20T06:51:34.305Z,4.10
2023-02-20T06:54:03.901Z,4.20
2023-02-20T06:56:34.626Z,4.20
2023-02-20T06:59:05.606Z,3.30
2023-02-20T07:01:39.611Z,3.70
2023-02-20T07:04:14.388Z,3.20
2023-02-20T07:06:42.898Z,3.60
2023-02-20T07:09:11.249Z,3.70
2023-02-20T07:11:39.830Z,3.90
2023-02-20T07:14:08.241Z,3.30
2023-02-20T07:16:36.534Z,3.60
2023-02-20T07:19:05.243Z,4.70
2023-02-20T07:21:33.592Z,3.10
2023-02-20T07:24:01.968Z,3.30
2023-02-20T07:26:31.093Z,3.20
2023-02-20T07:29:00.552Z,4.40
2023-02-20T07:31:31.615Z,4.20
2023-02-20T07:34:02.510Z,4.00
2023-02-20T07:36:36.131Z,4.50
2023-02-20T07:39:06.449Z,4.00
2023-02-20T07:41:35.433Z,4.20
2023-02-20T07:44:06.173Z,4.20
2023-02-20T07:46:34.585Z,4.20
2023-02-20T07:49:04.459Z,4.10
2023-02-20T07:51:33.367Z,4.20
2023-02-20T07:54:05.707Z,4.40
2023-02-20T07:56:36.422Z,4.80
2023-02-20T07:59:04.982Z,4.10
2023-02-20T08:01:33.337Z,4.50
2023-02-20T08:04:02.308Z,4.40
2023-02-20T08:06:30.679Z,5.30
2023-02-20T08:08:59.100Z,4.70
2023-02-20T08:11:27.979Z,3.90
2023-02-20T08:14:00.431Z,4.50
2023-02-20T08:16:29.186Z,3.90
2023-02-20T08:18:57.699Z,3.80
2023-02-20T08:21:26.223Z,4.20
2023-02-20T08:23:54.650Z,3.90
2023-02-20T08:26:45.321Z,4.50
2023-02-20T08:29:13.977Z,4.80
2023-02-20T08:31:42.906Z,3.60
2023-02-20T08:34:11.388Z,3.90
2023-02-20T08:36:41.275Z,4.00
2023-02-20T08:39:09.772Z,3.60
2023-02-20T08:41:43.789Z,4.00
2023-02-20T08:44:13.291Z,4.30
2023-02-20T08:46:48.682Z,4.30
2023-02-20T08:49:18.256Z,4.50
2023-02-20T08:51:47.812Z,4.20
2023-02-20T08:54:39.454Z,4.00
2023-02-20T08:57:07.919Z,4.00
2023-02-20T08:59:36.805Z,4.10
2023-02-20T09:02:05.191Z,3.90
2023-02-20T09:04:33.786Z,4.70
2023-02-20T09:07:02.251Z,4.40
2023-02-20T09:09:32.896Z,4.20
2023-02-20T09:12:01.302Z,4.20
2023-02-20T09:14:30.662Z,4.50
2023-02-20T09:16:59.153Z,5.40
2023-02-20T09:19:30.410Z,5.30
2023-02-20T09:21:58.969Z,4.80
2023-02-20T09:24:32.016Z,4.60
2023-02-20T09:27:01.284Z,4.90
2023-02-20T09:29:29.940Z,4.80
2023-02-20T09:31:58.382Z,4.60
2023-02-20T09:34:26.766Z,9.20
2023-02-20T09:36:55.662Z,5.20
2023-02-20T09:39:48.656Z,5.00
2023-02-20T09:42:26.122Z,5.40
2023-02-20T09:45:03.561Z,8.10
2023-02-20T09:47:42.319Z,4.80
2023-02-20T09:50:15.570Z,5.10
2023-02-20T09:52:58.997Z,5.20
2023-02-20T09:55:34.294Z,6.10
2023-02-20T09:58:06.384Z,5.40
2023-02-20T10:00:37.408Z,5.10
2023-02-20T10:03:20.828Z,6.10
2023-02-20T10:05:50.160Z,5.20
2023-02-20T10:08:21.753Z,6.30
2023-02-20T10:10:52.635Z,6.50
2023-02-20T10:13:43.553Z,6.70
2023-02-20T10:16:27.729Z,6.30
2023-02-20T10:19:08.561Z,6.50
2023-02-20T10:21:58.771Z,5.60
2023-02-20T10:24:42.893Z,5.30
2023-02-20T10:27:23.406Z,6.20
2023-02-20T10:29:52.318Z,5.40
2023-02-20T10:32:26.643Z,6.70
2023-02-20T10:34:59.865Z,5.90
2023-02-20T10:37:46.628Z,6.20
2023-02-20T10:40:21.918Z,6.00
2023-02-20T10:42:55.210Z,6.20
2023-02-20T10:45:30.500Z,5.70
2023-02-20T10:48:04.870Z,5.30
2023-02-20T10:50:39.455Z,5.30
2023-02-20T10:53:20.769Z,5.10
2023-02-20T10:55:53.872Z,6.10
2023-02-20T10:58:28.066Z,6.30
2023-02-20T11:00:59.144Z,6.40
2023-02-20T11:03:34.928Z,5.30
2023-02-20T11:06:06.832Z,5.90
2023-02-20T11:08:35.587Z,5.60
2023-02-20T11:11:21.489Z,5.50
2023-02-20T11:13:49.702Z,5.20
2023-02-20T11:16:24.791Z,4.80
2023-02-20T11:19:03.239Z,6.60
2023-02-20T11:21:41.575Z,5.20
2023-02-20T11:24:34.560Z,5.20
2023-02-20T11:27:09.119Z,5.30
2023-02-20T11:29:46.684Z,5.70
2023-02-20T11:32:30.999Z,5.80
2023-02-20T11:35:32.847Z,7.00
2023-02-20T11:38:28.673Z,6.80
2023-02-20T11:41:32.604Z,6.80
2023-02-20T11:44:20.416Z,7.00
2023-02-20T11:47:07.905Z,6.00
2023-02-20T11:49:39.395Z,7.40
2023-02-20T11:52:16.560Z,6.50
2023-02-20T11:54:46.649Z,7.70
2023-02-20T11:57:27.259Z,7.50
2023-02-20T12:00:16.888Z,6.90
2023-02-20T12:02:51.018Z,7.40
2023-02-20T12:05:20.435Z,7.30
2023-02-20T12:07:59.911Z,8.30
2023-02-20T12:10:41.386Z,7.50
2023-02-20T12:13:13.419Z,8.70
2023-02-20T12:15:43.528Z,9.00
2023-02-20T12:18:25.660Z,9.10
2023-02-20T12:21:03.816Z,10.20
2023-02-20T12:23:40.857Z,9.20
2023-02-20T12:26:20.726Z,8.30
2023-02-20T12:28:59.591Z,9.10
2023-02-20T12:31:41.283Z,8.70
2023-02-20T12:34:26.535Z,8.30
2023-02-20T12:37:03.781Z,8.30
2023-02-20T12:39:44.207Z,8.50
2023-02-20T12:42:21.100Z,9.40
2023-02-20T12:45:10.507Z,8.50
2023-02-20T12:47:41.864Z,9.80
2023-02-20T12:50:30.208Z,8.80
2023-02-20T12:53:23.804Z,9.40
2023-02-20T12:56:03.477Z,9.00
2023-02-20T12:58:41.965Z,9.20
2023-02-20T13:01:14.446Z,8.00
2023-02-20T13:03:52.371Z,8.10
2023-02-20T13:06:27.922Z,8.10
2023-02-20T13:09:03.971Z,7.90
2023-02-20T13:11:38.800Z,8.20
2023-02-20T13:14:23.782Z,8.80
2023-02-20T13:17:01.977Z,8.40
2023-02-20T13:19:36.397Z,8.10
2023-02-20T13:22:06.099Z,8.50
2023-02-20T13:24:36.155Z,8.50
2023-02-20T13:27:09.739Z,8.30
2023-02-20T13:29:39.482Z,8.10
2023-02-20T13:32:24.293Z,8.00
2023-02-20T13:34:52.989Z,8.20
2023-02-20T13:37:51.818Z,9.00
2023-02-20T13:40:43.666Z,9.20
2023-02-20T13:43:29.354Z,8.50
2023-02-20T13:46:21.834Z,7.80
2023-02-20T13:48:52.002Z,8.50
2023-02-20T13:51:39.078Z,8.10
2023-02-20T13:54:27.322Z,8.70
2023-02-20T13:57:02.335Z,8.20
2023-02-20T13:59:30.892Z,7.90
2023-02-20T14:02:17.190Z,7.80
2023-02-20T14:04:57.497Z,8.20
2023-02-20T14:07:37.280Z,8.10
2023-02-20T14:10:15.396Z,8.20
2023-02-20T14:12:44.054Z,8.60
2023-02-20T14:15:13.103Z,7.90
2023-02-20T14:17:43.642Z,7.30
2023-02-20T14:20:22.698Z,7.80
2023-02-20T14:23:08.295Z,7.50
2023-02-20T14:28:11.791Z,8.30
2023-02-20T14:30:40.970Z,7.10
2023-02-20T14:33:33.288Z,8.70
2023-02-20T14:36:17.926Z,7.30
2023-02-20T14:39:01.613Z,8.40
2023-02-20T14:41:30.706Z,8.10
2023-02-20T14:44:00.550Z,8.00
2023-02-20T14:46:30.810Z,7.80
2023-02-20T14:49:10.250Z,8.00
2023-02-20T14:51:38.810Z,7.60
2023-02-20T14:54:20.600Z,7.70
2023-02-20T14:56:51.540Z,7.60
2023-02-20T14:59:32.847Z,7.50
2023-02-20T15:02:03.688Z,6.30
2023-02-20T15:04:32.059Z,7.40
2023-02-20T15:07:06.986Z,7.00
2023-02-20T15:09:44.261Z,7.70
2023-02-20T15:12:22.530Z,6.40
2023-02-20T15:15:00.654Z,7.00
2023-02-20T15:17:31.388Z,7.80
2023-02-20T15:20:01.765Z,6.50
2023-02-20T15:22:33.243Z,6.60
2023-02-20T15:25:26.873Z,7.50
2023-02-20T15:28:11.316Z,6.50
2023-02-20T15:31:20.038Z,7.30
2023-02-20T15:33:52.744Z,6.80
2023-02-20T15:36:23.898Z,5.90
2023-02-20T15:38:58.587Z,7.00
2023-02-20T15:41:27.064Z,7.20
2023-02-20T15:43:55.509Z,6.60
2023-02-20T15:46:24.145Z,7.30
2023-02-20T15:48:52.540Z,6.60
2023-02-20T15:51:22.838Z,7.50
2023-02-20T15:53:53.275Z,6.30
2023-02-20T15:56:22.447Z,6.80
2023-02-20T15:58:51.775Z,6.60
2023-02-20T16:01:20.286Z,6.80
2023-02-20T16:03:52.810Z,6.50
2023-02-20T16:06:27.220Z,5.90
2023-02-20T16:08:56.044Z,6.60
2023-02-20T16:11:36.678Z,6.90
2023-02-20T16:14:09.180Z,6.80
2023-02-20T16:16:40.721Z,5.90
2023-02-20T16:19:14.967Z,6.20
2023-02-20T16:21:57.699Z,6.00
2023-02-20T16:24:29.276Z,5.80
2023-02-20T16:26:58.477Z,5.80
2023-02-20T16:29:31.626Z,6.10
2023-02-20T16:32:22.638Z,6.10
2023-02-20T16:34:57.014Z,6.60
2023-02-20T16:37:26.398Z,5.50
2023-02-20T16:39:54.844Z,5.70
2023-02-20T16:42:33.347Z,5.80
2023-02-20T16:45:06.836Z,5.90
2023-02-20T16:47:35.348Z,6.00
2023-02-20T16:50:07.275Z,5.80
2023-02-20T16:52:38.193Z,6.50
2023-02-20T16:55:18.632Z,6.50
2023-02-20T16:57:50.960Z,6.50
2023-02-20T17:00:30.826Z,6.00
2023-02-20T17:03:00.425Z,6.60
2023-02-20T17:05:34.411Z,6.40
2023-02-20T17:11:37.091Z,6.40
2023-02-20T17:14:05.515Z,6.20
2023-02-20T17:16:34.209Z,6.50
2023-02-20T17:19:03.146Z,7.60
2023-02-20T17:21:34.396Z,6.40
2023-02-20T17:24:02.908Z,7.30
2023-02-20T17:29:26.469Z,7.90
2023-02-20T17:34:52.006Z,6.80
2023-02-20T17:37:21.377Z,8.10
2023-02-20T17:39:50.013Z,6.40
2023-02-20T17:42:18.505Z,7.60
2023-02-20T17:44:46.911Z,7.50
2023-02-20T17:47:15.786Z,6.60
2023-02-20T17:49:44.983Z,6.30
2023-02-20T17:52:13.657Z,7.20
2023-02-20T17:54:45.885Z,6.20
2023-02-20T17:57:18.351Z,6.60
2023-02-20T17:59:48.713Z,7.20
2023-02-20T18:02:18.583Z,6.80
2023-02-20T18:04:49.933Z,6.60
2023-02-20T18:07:18.240Z,7.00
2023-02-20T18:09:52.428Z,7.00
2023-02-20T18:12:21.280Z,7.80
2023-02-20T18:14:50.409Z,6.60
2023-02-20T18:17:18.887Z,7.60
2023-02-20T18:19:55.270Z,7.30
2023-02-20T18:22:24.128Z,7.80
2023-02-20T18:24:55.790Z,8.20
2023-02-20T18:27:24.884Z,7.90
2023-02-20T18:29:53.508Z,8.20
2023-02-20T18:32:22.419Z,8.20
2023-02-20T18:34:51.390Z,8.70
2023-02-20T18:37:19.872Z,9.00
2023-02-20T18:39:48.454Z,8.00
2023-02-20T18:42:16.867Z,8.20
2023-02-20T18:44:48.241Z,9.40
2023-02-20T18:47:19.820Z,8.50
2023-02-20T18:49:51.047Z,8.30
2023-02-20T18:52:23.943Z,8.90
2023-02-20T18:54:52.628Z,8.20
2023-02-20T18:57:22.468Z,8.20
2023-02-20T18:59:50.915Z,7.70
2023-02-20T19:02:19.342Z,8.70
2023-02-20T19:04:50.348Z,8.30
2023-02-20T19:07:19.116Z,8.10
2023-02-20T19:09:53.543Z,8.70
2023-02-20T19:12:22.961Z,7.80
2023-02-20T19:14:51.600Z,8.10
2023-02-20T19:17:20.092Z,7.70
2023-02-20T19:19:49.007Z,6.80
2023-02-20T19:22:18.673Z,7.00
2023-02-20T19:24:48.428Z,6.80
2023-02-20T19:27:19.730Z,7.60
2023-02-20T19:29:48.389Z,7.50
2023-02-20T19:32:18.690Z,6.50
2023-02-20T19:34:47.789Z,6.50
2023-02-20T19:37:17.250Z,7.30
2023-02-20T19:39:45.655Z,6.30
2023-02-20T19:42:16.892Z,7.30
2023-02-20T19:44:45.425Z,7.40
2023-02-20T19:47:16.506Z,7.60
2023-02-20T19:49:46.424Z,7.20
2023-02-20T19:52:15.085Z,7.00
2023-02-20T19:54:46.123Z,7.00
2023-02-20T19:57:15.217Z,6.70
2023-02-20T19:59:44.041Z,6.80
2023-02-20T20:02:12.729Z,7.10
2023-02-20T20:04:43.436Z,6.80
2023-02-20T20:07:12.201Z,6.60
2023-02-20T20:09:44.685Z,6.00
2023-02-20T20:12:31.506Z,6.60
2023-02-20T20:15:00.177Z,6.90
2023-02-20T20:17:29.095Z,6.60
2023-02-20T20:19:59.821Z,6.90
2023-02-20T20:22:29.268Z,7.30
2023-02-20T20:24:58.246Z,6.80
2023-02-20T20:27:26.999Z,7.10
2023-02-20T20:29:55.370Z,7.30
2023-02-20T20:32:24.308Z,7.20
2023-02-20T20:34:54.591Z,8.00
2023-02-20T20:37:24.754Z,7.30
2023-02-20T20:39:54.200Z,7.40
2023-02-20T20:42:24.682Z,7.40
2023-02-20T20:44:55.007Z,6.80
2023-02-20T20:47:24.784Z,7.00
2023-02-20T20:49:53.615Z,6.50
2023-02-20T20:52:24.203Z,6.40
2023-02-20T20:54:54.432Z,6.90
2023-02-20T20:57:30.272Z,7.00
2023-02-20T20:59:59.924Z,6.20
2023-02-20T21:02:29.025Z,6.00
2023-02-20T21:05:09.276Z,6.50
2023-02-20T21:07:39.051Z,7.50
2023-02-20T21:10:09.373Z,6.30
2023-02-20T21:12:38.269Z,6.00
2023-02-20T21:15:09.266Z,5.90
2023-02-20T21:17:37.957Z,6.20
2023-02-20T21:20:11.637Z,6.20
2023-02-20T21:22:40.267Z,6.00
2023-02-20T21:25:09.501Z,6.20
2023-02-20T21:27:38.166Z,5.90
2023-02-20T21:30:11.523Z,5.30
2023-02-20T21:32:39.890Z,5.20
2023-02-20T21:35:08.635Z,4.20
2023-02-20T21:37:37.020Z,3.80
2023-02-20T21:40:08.358Z,4.10
2023-02-20T21:42:55.317Z,3.30
2023-02-20T21:45:23.915Z,3.50
2023-02-20T21:47:53.570Z,3.40
2023-02-20T21:50:22.439Z,3.40
2023-02-20T21:52:51.063Z,3.20
2023-02-20T21:55:20.313Z,3.40
2023-02-20T21:57:49.050Z,3.20
2023-02-20T22:00:17.208Z,3.20
2023-02-20T22:02:45.202Z,2.80
2023-02-20T22:05:13.453Z,3.20
2023-02-20T22:08:00.157Z,3.10
2023-02-20T22:10:47.271Z,2.80
2023-02-20T22:13:34.526Z,2.80
2023-02-20T22:16:24.461Z,2.80
2023-02-20T22:19:10.994Z,2.70
2023-02-20T22:21:58.455Z,3.10
2023-02-20T22:24:45.275Z,3.10
2023-02-20T22:27:36.345Z,3.10
2023-02-20T22:30:24.535Z,2.90
2023-02-20T22:33:12.141Z,3.00
2023-02-20T22:35:59.004Z,2.90
2023-02-20T22:38:45.797Z,2.90
2023-02-20T22:41:38.585Z,3.00
2023-02-20T22:44:25.486Z,2.80
2023-02-20T22:47:12.301Z,2.70
2023-02-20T22:49:59.234Z,2.60
2023-02-20T22:52:45.944Z,3.00
2023-02-20T22:55:32.679Z,2.70
2023-02-20T22:58:20.200Z,2.50
2023-02-20T23:01:07.968Z,3.50
2023-02-20T23:03:57.109Z,2.80
2023-02-20T23:06:43.570Z,2.10
2023-02-20T23:09:31.220Z,1.90
2023-02-20T23:12:17.603Z,2.10
2023-02-20T23:15:04.302Z,2.00
2023-02-20T23:17:51.872Z,2.10
2023-02-20T23:20:41.048Z,2.00
2023-02-20T23:23:29.238Z,1.90
2023-02-20T23:26:16.043Z,2.20
2023-02-20T23:29:03.214Z,1.80
2023-02-20T23:31:52.851Z,2.10
2023-02-20T23:34:39.959Z,1.60
2023-02-20T23:37:27.836Z,2.80
2023-02-20T23:40:17.236Z,1.90
2023-02-20T23:43:08.050Z,1.80
2023-02-20T23:45:54.583Z,2.30
2023-02-20T23:48:41.558Z,2.20
2023-02-20T23:51:29.573Z,2.60
2023-02-20T23:54:16.502Z,2.70
2023-02-20T23:57:02.884Z,2.20
2023-02-20T23:59:49.475Z,2.50
